Aeroporto :
LOGIN :

Iscrizione | Disclaimer

   EN    FR    IT 

 










Sommario :    VFR   VFR Marginale   IFR   IFR Intensivo   IFR Molto Intensivo
Visibilità : 
Base nubi : 
>= 8 km
>= 3000ft
5 / 8 km
1000 / 3000 ft
1500m / 5 km
500 / 1000 ft
800 / 1500m
200 / 500 ft
< 800m
< 200 ft
Simboli :   Temporali  Nebbia  Neve Forte  Precipitazioni Forti  Vento > 20 kt
SIGMETs :   Varie  Temporali  Ghiacco  Turbolenza  Onda orograficha  Ceneri Vulcaniche







- Altitudine del aeroporto : 1090 ft
- Codice IATA : CFE
- Carte del aeroporto


LFLC - Clermont-Ferrand Auvergne

ULTIMO METAR :
  • 210530Z AUTO VRB01KT 9999 BKN054 OVC070 16/15 Q1014 TEMPO SCT035 BKN040TCU

METARs OBSOLETI :
  • 210500Z AUTO VRB02KT 9999 BKN058 BKN068 OVC096 16/16 Q1014 TEMPO SCT035 BKN040TCU
  • 210430Z AUTO 08003KT 050V120 6000 NSC 16/15 Q1014 TEMPO SCT035 BKN040TCU
  • 210400Z AUTO 04004KT CAVOK 16/15 Q1014 TEMPO 3000 BR SCT035 BKN040TCU
  • 210330Z AUTO 07003KT 040V100 5000 BR BKN044 16/16 Q1014 TEMPO SCT035 BKN040TCU
  • 210300Z AUTO 34002KT 6000 FEW004 SCT060 BKN074 16/16 Q1014 TEMPO SCT035 BKN040TCU

TAF AMD TAF LFLC
Valido dal 21 a 03 ore il 22 a 03 ore UTC


210311Z 2103/2203 VRB04KT 9999 SCT015 OVC050
PROB40
TEMPO 2103/2115 -SHRA SCT035 BKN040TCU
PROB30
TEMPO 2103/2105 3000 BR SCT005
ATIS : +33 4 73 62 74 38
Nessun NOTAM noto per questo aeroporto.



MetMap, La meteo Aeronautica in un colpo d'occhio ! - Copyright ORBIFLY Dicembre 2007 - Disclaimer

ORBIFLY MET'MAP TEAM :

Programmazione e sviluppo : Alexandra Zaïnal
Concezione e sviluppo : Baudouin d'Aumeries
Co-Programmazione e sviluppo : Marc-Olivier Méhu
Supporto tecnico e logistico : Manuel Goepfert
Aiuto per la traduzione : Arnaldo La Scala

Contatto : metmap@orbifly.com




FONTI E CREDITI :

   NOAA